Hlavní strana
METAR-TAF:

METAR-TAF

Letiště :

Draugen, Norsko

zeměpisná šířka: 64-21-20N, zeměpisná délka: 007-47-30E, výška: 0 m

Aktuální stav počasí

Zpráva byla vytvořena před 26 minutami, v 00:50 UTC
Východojihovýchodní vítr 21 kt
Teplota 13°C
Vlhkost vzduchu 72%
Tlak 1010 hPa

METAR: ENDR 220050Z AUTO 12021KT 13/08 Q1010

Čas: 03:16 (01:16 UTC)


TAF: chybějící

Stav a předpovědi počasí z více než 4 000 letišť (zprávy METAR a TAF).

Červené a žluté tečky na mapě představují dostupné meteorologické stanice.

Když kurzor umístíte na tečku, zobrazí se název stanice.

Pak kliknutím zobrazíte stav a předpověď počasí.

Chcete-li změnit mapu, kliknutím na zelené tlačítko se znaménkem +mapu přiblížíte, kliknutím na zelené tlačítko se znaménkem – mapu oddálíte a kliknutím na zelené šipky přejdete na sousední mapy.


METAR-TAF: